Terminal Aerodrome Forecast
Issued by NWS

Current Version | Previous Version | Text Only | Print | Product List | Glossary Off
Versions: 1 2 3 4 5 6 7 8 9 10 11 12 13 14 15 16 17 18 19 20

000
FTUS41 KILN 020800 AAA
TAFLUK
TAF AMD
KLUK 020800Z 0208/0306 00000KT 1SM BR SKC
      TEMPO 0209/0211 1/4SM FG BKN003
     FM021200 00000KT 4SM BR FEW003
     FM021400 26005KT P6SM SCT040 SCT100
     FM021700 29005KT P6SM VCSH BKN050=

USA.gov is the U.S. government's official web portal to all federal, state and local government web resources and services.